Terminal Aerodrome Forecast
Issued by NWS Sterling, VA

Home | Current Version | Previous Version | Text Only | Print | Product List | Glossary On
Versions: 1 2 3 4 5 6 7 8 9 10 11 12 13 14 15 16 17 18 19 20 21 22
000
FTUS41 KLWX 231433 AAA
TAFBWI
TAF AMD
KBWI 231433Z 2315/2418 11005KT P6SM FEW070 BKN250
     FM231700 12010G18KT P6SM FEW070 BKN250
     FM240000 14007KT P6SM BKN100
     FM240800 10004KT P6SM BKN050=

USA.gov is the U.S. government's official web portal to all federal, state and local government web resources and services.